sensor_id;sensor_type;location;lat;lon;timestamp;P1;durP1;ratioP1;P2;durP2;ratioP2
77822;SDS011;67013;49.730;17.292;2023-06-05T00:03:23;2.60;;;1.10;;
77822;SDS011;67013;49.730;17.292;2023-06-05T00:05:55;3.30;;;1.30;;
77822;SDS011;67013;49.730;17.292;2023-06-05T00:08:25;2.40;;;1.10;;
77822;SDS011;67013;49.730;17.292;2023-06-05T00:10:54;2.90;;;1.20;;
77822;SDS011;67013;49.730;17.292;2023-06-05T00:13:24;2.70;;;1.40;;
77822;SDS011;67013;49.730;17.292;2023-06-05T00:15:53;2.60;;;1.10;;
77822;SDS011;67013;49.730;17.292;2023-06-05T00:18:23;2.80;;;1.10;;
77822;SDS011;67013;49.730;17.292;2023-06-05T00:20:54;2.90;;;1.20;;
77822;SDS011;67013;49.730;17.292;2023-06-05T00:23:23;2.30;;;0.90;;
77822;SDS011;67013;49.730;17.292;2023-06-05T00:25:53;3.40;;;1.60;;
77822;SDS011;67013;49.730;17.292;2023-06-05T00:28:22;2.70;;;1.40;;
77822;SDS011;67013;49.730;17.292;2023-06-05T00:30:52;2.40;;;1.00;;
77822;SDS011;67013;49.730;17.292;2023-06-05T00:33:22;2.60;;;1.10;;
77822;SDS011;67013;49.730;17.292;2023-06-05T00:35:52;2.60;;;1.20;;
77822;SDS011;67013;49.730;17.292;2023-06-05T00:38:21;2.50;;;1.20;;
77822;SDS011;67013;49.730;17.292;2023-06-05T00:40:51;2.60;;;1.10;;
77822;SDS011;67013;49.730;17.292;2023-06-05T00:43:20;2.00;;;1.10;;
77822;SDS011;67013;49.730;17.292;2023-06-05T00:45:50;3.20;;;1.10;;
77822;SDS011;67013;49.730;17.292;2023-06-05T00:48:24;1.60;;;0.90;;
77822;SDS011;67013;49.730;17.292;2023-06-05T00:50:54;2.50;;;0.90;;
77822;SDS011;67013;49.730;17.292;2023-06-05T00:53:24;3.50;;;1.30;;
77822;SDS011;67013;49.730;17.292;2023-06-05T00:55:54;2.50;;;1.10;;
77822;SDS011;67013;49.730;17.292;2023-06-05T00:58:24;2.80;;;1.30;;
77822;SDS011;67013;49.730;17.292;2023-06-05T01:00:55;3.70;;;1.20;;
77822;SDS011;67013;49.730;17.292;2023-06-05T01:03:26;2.90;;;1.20;;
77822;SDS011;67013;49.730;17.292;2023-06-05T01:06:00;2.40;;;1.00;;
77822;SDS011;67013;49.730;17.292;2023-06-05T01:08:31;4.10;;;1.20;;
77822;SDS011;67013;49.730;17.292;2023-06-05T01:11:06;2.20;;;0.90;;
77822;SDS011;67013;49.730;17.292;2023-06-05T01:13:42;2.90;;;1.20;;
77822;SDS011;67013;49.730;17.292;2023-06-05T01:16:17;2.50;;;1.10;;
77822;SDS011;67013;49.730;17.292;2023-06-05T01:18:46;2.90;;;1.10;;
77822;SDS011;67013;49.730;17.292;2023-06-05T01:21:16;2.20;;;1.10;;
77822;SDS011;67013;49.730;17.292;2023-06-05T01:23:45;3.80;;;1.30;;
77822;SDS011;67013;49.730;17.292;2023-06-05T01:26:18;2.60;;;1.10;;
77822;SDS011;67013;49.730;17.292;2023-06-05T01:28:51;2.80;;;1.20;;
77822;SDS011;67013;49.730;17.292;2023-06-05T01:31:22;2.60;;;1.00;;
77822;SDS011;67013;49.730;17.292;2023-06-05T01:33:54;2.60;;;1.20;;
77822;SDS011;67013;49.730;17.292;2023-06-05T01:36:28;2.60;;;1.10;;
77822;SDS011;67013;49.730;17.292;2023-06-05T01:38:59;2.40;;;1.00;;
77822;SDS011;67013;49.730;17.292;2023-06-05T01:41:31;3.40;;;1.30;;
77822;SDS011;67013;49.730;17.292;2023-06-05T01:44:02;2.70;;;1.30;;
77822;SDS011;67013;49.730;17.292;2023-06-05T01:46:34;2.40;;;1.20;;
77822;SDS011;67013;49.730;17.292;2023-06-05T01:49:04;3.00;;;1.40;;
77822;SDS011;67013;49.730;17.292;2023-06-05T01:51:35;2.70;;;1.20;;
77822;SDS011;67013;49.730;17.292;2023-06-05T01:54:04;2.90;;;1.40;;
77822;SDS011;67013;49.730;17.292;2023-06-05T01:56:34;2.80;;;1.20;;
77822;SDS011;67013;49.730;17.292;2023-06-05T01:59:04;3.40;;;1.30;;
77822;SDS011;67013;49.730;17.292;2023-06-05T02:01:35;2.40;;;1.10;;
77822;SDS011;67013;49.730;17.292;2023-06-05T02:04:04;2.50;;;1.10;;
77822;SDS011;67013;49.730;17.292;2023-06-05T02:06:34;2.50;;;1.20;;
77822;SDS011;67013;49.730;17.292;2023-06-05T02:09:08;3.20;;;1.20;;
77822;SDS011;67013;49.730;17.292;2023-06-05T02:11:39;2.70;;;1.30;;
77822;SDS011;67013;49.730;17.292;2023-06-05T02:14:11;3.20;;;1.20;;
77822;SDS011;67013;49.730;17.292;2023-06-05T02:16:42;2.70;;;1.20;;
77822;SDS011;67013;49.730;17.292;2023-06-05T02:19:14;2.60;;;1.20;;
77822;SDS011;67013;49.730;17.292;2023-06-05T02:21:45;2.70;;;1.20;;
77822;SDS011;67013;49.730;17.292;2023-06-05T02:24:14;2.70;;;1.10;;
77822;SDS011;67013;49.730;17.292;2023-06-05T02:26:44;2.40;;;1.10;;
77822;SDS011;67013;49.730;17.292;2023-06-05T02:29:14;2.70;;;1.20;;
77822;SDS011;67013;49.730;17.292;2023-06-05T02:31:44;3.20;;;1.30;;
77822;SDS011;67013;49.730;17.292;2023-06-05T02:34:13;2.80;;;1.10;;
77822;SDS011;67013;49.730;17.292;2023-06-05T02:36:43;2.90;;;1.40;;
77822;SDS011;67013;49.730;17.292;2023-06-05T02:39:12;3.30;;;1.50;;
77822;SDS011;67013;49.730;17.292;2023-06-05T02:41:42;2.60;;;1.20;;
77822;SDS011;67013;49.730;17.292;2023-06-05T02:44:12;3.60;;;1.20;;
77822;SDS011;67013;49.730;17.292;2023-06-05T02:46:42;3.10;;;1.50;;
77822;SDS011;67013;49.730;17.292;2023-06-05T02:49:11;3.20;;;1.40;;
77822;SDS011;67013;49.730;17.292;2023-06-05T02:51:41;3.00;;;1.20;;
77822;SDS011;67013;49.730;17.292;2023-06-05T02:54:10;3.90;;;1.30;;
77822;SDS011;67013;49.730;17.292;2023-06-05T02:56:40;3.20;;;1.20;;
77822;SDS011;67013;49.730;17.292;2023-06-05T02:59:10;3.80;;;1.60;;
77822;SDS011;67013;49.730;17.292;2023-06-05T03:01:41;4.00;;;1.50;;
77822;SDS011;67013;49.730;17.292;2023-06-05T03:04:13;2.80;;;1.10;;
77822;SDS011;67013;49.730;17.292;2023-06-05T03:06:47;3.60;;;1.30;;
77822;SDS011;67013;49.730;17.292;2023-06-05T03:09:19;4.70;;;1.50;;
77822;SDS011;67013;49.730;17.292;2023-06-05T03:11:49;2.90;;;1.40;;
77822;SDS011;67013;49.730;17.292;2023-06-05T03:14:19;6.00;;;1.40;;
77822;SDS011;67013;49.730;17.292;2023-06-05T03:16:48;5.60;;;1.30;;
77822;SDS011;67013;49.730;17.292;2023-06-05T03:19:19;3.60;;;1.30;;
77822;SDS011;67013;49.730;17.292;2023-06-05T03:21:49;3.20;;;1.50;;
77822;SDS011;67013;49.730;17.292;2023-06-05T03:24:20;3.80;;;1.20;;
77822;SDS011;67013;49.730;17.292;2023-06-05T03:26:51;3.20;;;1.30;;
77822;SDS011;67013;49.730;17.292;2023-06-05T03:29:20;3.00;;;1.30;;
77822;SDS011;67013;49.730;17.292;2023-06-05T03:31:50;3.00;;;1.30;;
77822;SDS011;67013;49.730;17.292;2023-06-05T03:34:19;2.70;;;1.10;;
77822;SDS011;67013;49.730;17.292;2023-06-05T03:36:52;2.90;;;1.30;;
77822;SDS011;67013;49.730;17.292;2023-06-05T03:39:25;2.50;;;1.30;;
77822;SDS011;67013;49.730;17.292;2023-06-05T03:41:54;3.30;;;1.20;;
77822;SDS011;67013;49.730;17.292;2023-06-05T03:44:24;3.00;;;1.50;;
77822;SDS011;67013;49.730;17.292;2023-06-05T03:46:53;3.30;;;1.40;;
77822;SDS011;67013;49.730;17.292;2023-06-05T03:49:23;2.80;;;1.40;;
77822;SDS011;67013;49.730;17.292;2023-06-05T03:54:27;3.20;;;1.50;;
77822;SDS011;67013;49.730;17.292;2023-06-05T03:56:59;3.00;;;1.50;;
77822;SDS011;67013;49.730;17.292;2023-06-05T03:59:28;3.30;;;1.60;;
77822;SDS011;67013;49.730;17.292;2023-06-05T04:01:58;4.00;;;1.30;;
77822;SDS011;67013;49.730;17.292;2023-06-05T04:04:28;3.90;;;1.40;;
77822;SDS011;67013;49.730;17.292;2023-06-05T04:06:58;4.40;;;1.60;;
77822;SDS011;67013;49.730;17.292;2023-06-05T04:09:27;3.00;;;1.50;;
77822;SDS011;67013;49.730;17.292;2023-06-05T04:11:58;3.50;;;1.70;;
77822;SDS011;67013;49.730;17.292;2023-06-05T04:14:27;6.00;;;1.30;;
77822;SDS011;67013;49.730;17.292;2023-06-05T04:16:56;3.60;;;1.50;;
77822;SDS011;67013;49.730;17.292;2023-06-05T04:19:26;3.60;;;1.50;;
77822;SDS011;67013;49.730;17.292;2023-06-05T04:21:55;4.60;;;1.50;;
77822;SDS011;67013;49.730;17.292;2023-06-05T04:24:25;4.70;;;1.40;;
77822;SDS011;67013;49.730;17.292;2023-06-05T04:26:55;4.10;;;1.60;;
77822;SDS011;67013;49.730;17.292;2023-06-05T04:29:27;3.40;;;1.50;;
77822;SDS011;67013;49.730;17.292;2023-06-05T04:34:26;4.10;;;1.50;;
77822;SDS011;67013;49.730;17.292;2023-06-05T04:36:56;3.70;;;1.40;;
77822;SDS011;67013;49.730;17.292;2023-06-05T04:39:25;4.50;;;1.30;;
77822;SDS011;67013;49.730;17.292;2023-06-05T04:41:54;4.00;;;1.30;;
77822;SDS011;67013;49.730;17.292;2023-06-05T04:44:24;3.60;;;1.20;;
77822;SDS011;67013;49.730;17.292;2023-06-05T04:46:54;4.10;;;1.30;;
77822;SDS011;67013;49.730;17.292;2023-06-05T04:49:23;2.10;;;1.00;;
77822;SDS011;67013;49.730;17.292;2023-06-05T04:51:53;2.60;;;1.10;;
77822;SDS011;67013;49.730;17.292;2023-06-05T04:54:23;3.10;;;1.40;;
77822;SDS011;67013;49.730;17.292;2023-06-05T04:56:52;3.20;;;1.50;;
77822;SDS011;67013;49.730;17.292;2023-06-05T04:59:22;4.00;;;1.40;;
77822;SDS011;67013;49.730;17.292;2023-06-05T05:01:52;4.20;;;1.40;;
77822;SDS011;67013;49.730;17.292;2023-06-05T05:04:21;3.20;;;1.30;;
77822;SDS011;67013;49.730;17.292;2023-06-05T05:06:51;4.20;;;1.50;;
77822;SDS011;67013;49.730;17.292;2023-06-05T05:09:20;4.00;;;1.40;;
77822;SDS011;67013;49.730;17.292;2023-06-05T05:11:50;2.70;;;1.20;;
77822;SDS011;67013;49.730;17.292;2023-06-05T05:14:19;3.60;;;1.30;;
77822;SDS011;67013;49.730;17.292;2023-06-05T05:16:48;2.20;;;1.10;;
77822;SDS011;67013;49.730;17.292;2023-06-05T05:19:18;4.00;;;1.40;;
77822;SDS011;67013;49.730;17.292;2023-06-05T05:21:48;4.60;;;1.20;;
77822;SDS011;67013;49.730;17.292;2023-06-05T05:24:17;3.10;;;1.00;;
77822;SDS011;67013;49.730;17.292;2023-06-05T05:26:48;2.30;;;1.00;;
77822;SDS011;67013;49.730;17.292;2023-06-05T05:29:19;3.60;;;1.10;;
77822;SDS011;67013;49.730;17.292;2023-06-05T05:31:48;3.40;;;1.20;;
77822;SDS011;67013;49.730;17.292;2023-06-05T05:34:18;2.80;;;1.10;;
77822;SDS011;67013;49.730;17.292;2023-06-05T05:36:48;2.00;;;1.00;;
77822;SDS011;67013;49.730;17.292;2023-06-05T05:39:17;2.70;;;1.20;;
77822;SDS011;67013;49.730;17.292;2023-06-05T05:41:47;2.20;;;1.00;;
77822;SDS011;67013;49.730;17.292;2023-06-05T05:44:17;1.70;;;0.80;;
77822;SDS011;67013;49.730;17.292;2023-06-05T05:46:46;2.90;;;1.10;;
77822;SDS011;67013;49.730;17.292;2023-06-05T05:49:16;2.30;;;0.90;;
77822;SDS011;67013;49.730;17.292;2023-06-05T05:51:45;3.10;;;0.90;;
77822;SDS011;67013;49.730;17.292;2023-06-05T05:54:15;4.70;;;1.20;;
77822;SDS011;67013;49.730;17.292;2023-06-05T05:56:44;3.50;;;1.20;;
77822;SDS011;67013;49.730;17.292;2023-06-05T05:59:15;3.80;;;1.30;;
77822;SDS011;67013;49.730;17.292;2023-06-05T06:01:45;3.60;;;1.00;;
77822;SDS011;67013;49.730;17.292;2023-06-05T06:06:44;5.50;;;1.40;;
77822;SDS011;67013;49.730;17.292;2023-06-05T06:09:18;2.90;;;1.10;;
77822;SDS011;67013;49.730;17.292;2023-06-05T06:11:49;3.10;;;0.90;;
77822;SDS011;67013;49.730;17.292;2023-06-05T06:14:21;3.40;;;1.00;;
77822;SDS011;67013;49.730;17.292;2023-06-05T06:16:51;3.80;;;1.00;;
77822;SDS011;67013;49.730;17.292;2023-06-05T06:19:22;2.60;;;0.90;;
77822;SDS011;67013;49.730;17.292;2023-06-05T06:21:53;2.50;;;0.90;;
77822;SDS011;67013;49.730;17.292;2023-06-05T06:24:23;2.60;;;0.70;;
77822;SDS011;67013;49.730;17.292;2023-06-05T06:26:53;1.80;;;0.80;;
77822;SDS011;67013;49.730;17.292;2023-06-05T06:29:23;3.80;;;1.10;;
77822;SDS011;67013;49.730;17.292;2023-06-05T06:31:54;1.90;;;0.90;;
77822;SDS011;67013;49.730;17.292;2023-06-05T06:34:23;2.30;;;0.90;;
77822;SDS011;67013;49.730;17.292;2023-06-05T06:36:53;2.20;;;0.90;;
77822;SDS011;67013;49.730;17.292;2023-06-05T06:39:22;2.30;;;0.90;;
77822;SDS011;67013;49.730;17.292;2023-06-05T06:41:52;2.60;;;0.90;;
77822;SDS011;67013;49.730;17.292;2023-06-05T06:44:23;2.60;;;0.90;;
77822;SDS011;67013;49.730;17.292;2023-06-05T06:46:54;2.80;;;1.00;;
77822;SDS011;67013;49.730;17.292;2023-06-05T06:51:53;4.00;;;0.90;;
77822;SDS011;67013;49.730;17.292;2023-06-05T06:54:22;2.70;;;0.90;;
77822;SDS011;67013;49.730;17.292;2023-06-05T06:56:55;2.90;;;1.00;;
77822;SDS011;67013;49.730;17.292;2023-06-05T06:59:25;2.40;;;1.00;;
77822;SDS011;67013;49.730;17.292;2023-06-05T07:02:10;3.00;;;1.10;;
77822;SDS011;67013;49.730;17.292;2023-06-05T07:04:41;2.80;;;0.90;;
77822;SDS011;67013;49.730;17.292;2023-06-05T07:07:12;3.40;;;1.10;;
77822;SDS011;67013;49.730;17.292;2023-06-05T07:09:44;4.20;;;1.10;;
77822;SDS011;67013;49.730;17.292;2023-06-05T07:12:14;2.70;;;1.00;;
77822;SDS011;67013;49.730;17.292;2023-06-05T07:14:45;3.30;;;1.10;;
77822;SDS011;67013;49.730;17.292;2023-06-05T07:17:15;2.30;;;1.00;;
77822;SDS011;67013;49.730;17.292;2023-06-05T07:19:45;3.20;;;1.00;;
77822;SDS011;67013;49.730;17.292;2023-06-05T07:22:14;3.00;;;0.90;;
77822;SDS011;67013;49.730;17.292;2023-06-05T07:24:44;2.60;;;0.90;;
77822;SDS011;67013;49.730;17.292;2023-06-05T07:27:15;2.90;;;1.00;;
77822;SDS011;67013;49.730;17.292;2023-06-05T07:29:46;1.80;;;0.70;;
77822;SDS011;67013;49.730;17.292;2023-06-05T07:32:16;3.00;;;1.00;;
77822;SDS011;67013;49.730;17.292;2023-06-05T07:34:47;2.00;;;0.90;;
77822;SDS011;67013;49.730;17.292;2023-06-05T07:37:17;2.60;;;1.00;;
77822;SDS011;67013;49.730;17.292;2023-06-05T07:39:46;2.40;;;0.90;;
77822;SDS011;67013;49.730;17.292;2023-06-05T07:42:17;2.00;;;0.80;;
77822;SDS011;67013;49.730;17.292;2023-06-05T07:44:47;2.10;;;0.90;;
77822;SDS011;67013;49.730;17.292;2023-06-05T07:47:17;3.20;;;1.10;;
77822;SDS011;67013;49.730;17.292;2023-06-05T07:49:57;3.80;;;1.10;;
77822;SDS011;67013;49.730;17.292;2023-06-05T07:52:27;2.60;;;1.20;;
77822;SDS011;67013;49.730;17.292;2023-06-05T07:54:57;3.60;;;1.30;;
77822;SDS011;67013;49.730;17.292;2023-06-05T07:57:27;3.00;;;1.20;;
77822;SDS011;67013;49.730;17.292;2023-06-05T07:59:56;2.50;;;1.00;;
77822;SDS011;67013;49.730;17.292;2023-06-05T08:02:25;2.70;;;1.10;;
77822;SDS011;67013;49.730;17.292;2023-06-05T08:04:55;3.80;;;1.40;;
77822;SDS011;67013;49.730;17.292;2023-06-05T08:07:24;5.40;;;1.30;;
77822;SDS011;67013;49.730;17.292;2023-06-05T08:09:54;4.30;;;1.30;;
77822;SDS011;67013;49.730;17.292;2023-06-05T08:12:23;2.90;;;1.30;;
77822;SDS011;67013;49.730;17.292;2023-06-05T08:14:53;3.70;;;1.20;;
77822;SDS011;67013;49.730;17.292;2023-06-05T08:17:22;3.20;;;1.10;;
77822;SDS011;67013;49.730;17.292;2023-06-05T08:19:52;3.40;;;1.10;;
77822;SDS011;67013;49.730;17.292;2023-06-05T08:22:21;2.60;;;1.00;;
77822;SDS011;67013;49.730;17.292;2023-06-05T08:24:51;2.50;;;1.00;;
77822;SDS011;67013;49.730;17.292;2023-06-05T08:27:22;2.80;;;1.00;;
77822;SDS011;67013;49.730;17.292;2023-06-05T08:29:52;3.10;;;1.20;;
77822;SDS011;67013;49.730;17.292;2023-06-05T08:32:21;3.00;;;1.20;;
77822;SDS011;67013;49.730;17.292;2023-06-05T08:34:51;3.20;;;1.00;;
77822;SDS011;67013;49.730;17.292;2023-06-05T08:37:21;2.90;;;1.20;;
77822;SDS011;67013;49.730;17.292;2023-06-05T08:39:50;2.90;;;1.20;;
77822;SDS011;67013;49.730;17.292;2023-06-05T08:42:19;3.80;;;1.20;;
77822;SDS011;67013;49.730;17.292;2023-06-05T08:44:51;4.80;;;1.40;;
77822;SDS011;67013;49.730;17.292;2023-06-05T08:47:21;3.30;;;1.20;;
77822;SDS011;67013;49.730;17.292;2023-06-05T08:49:55;7.00;;;1.30;;
77822;SDS011;67013;49.730;17.292;2023-06-05T08:52:29;3.10;;;1.40;;
77822;SDS011;67013;49.730;17.292;2023-06-05T08:55:04;3.80;;;1.20;;
77822;SDS011;67013;49.730;17.292;2023-06-05T08:57:35;3.50;;;1.20;;
77822;SDS011;67013;49.730;17.292;2023-06-05T09:00:08;3.70;;;1.30;;
77822;SDS011;67013;49.730;17.292;2023-06-05T09:02:41;3.90;;;1.20;;
77822;SDS011;67013;49.730;17.292;2023-06-05T09:05:13;2.70;;;1.20;;
77822;SDS011;67013;49.730;17.292;2023-06-05T09:07:43;3.60;;;1.30;;
77822;SDS011;67013;49.730;17.292;2023-06-05T09:13:00;2.60;;;1.20;;
77822;SDS011;67013;49.730;17.292;2023-06-05T09:15:32;3.80;;;1.60;;
77822;SDS011;67013;49.730;17.292;2023-06-05T09:18:05;3.00;;;1.60;;
77822;SDS011;67013;49.730;17.292;2023-06-05T09:20:36;3.40;;;1.20;;
77822;SDS011;67013;49.730;17.292;2023-06-05T09:26:08;3.70;;;1.30;;
77822;SDS011;67013;49.730;17.292;2023-06-05T09:28:43;3.20;;;1.30;;
77822;SDS011;67013;49.730;17.292;2023-06-05T09:33:56;2.80;;;1.20;;
77822;SDS011;67013;49.730;17.292;2023-06-05T09:36:25;2.90;;;1.40;;
77822;SDS011;67013;49.730;17.292;2023-06-05T09:39:00;3.30;;;1.40;;
77822;SDS011;67013;49.730;17.292;2023-06-05T09:41:43;3.10;;;1.30;;
77822;SDS011;67013;49.730;17.292;2023-06-05T09:44:13;2.90;;;1.30;;
77822;SDS011;67013;49.730;17.292;2023-06-05T09:46:51;3.00;;;1.30;;
77822;SDS011;67013;49.730;17.292;2023-06-05T09:49:24;4.90;;;1.80;;
77822;SDS011;67013;49.730;17.292;2023-06-05T09:51:55;4.20;;;1.30;;
77822;SDS011;67013;49.730;17.292;2023-06-05T09:54:26;4.30;;;1.40;;
77822;SDS011;67013;49.730;17.292;2023-06-05T09:56:57;3.50;;;1.50;;
77822;SDS011;67013;49.730;17.292;2023-06-05T10:01:59;3.00;;;1.40;;
77822;SDS011;67013;49.730;17.292;2023-06-05T10:04:32;2.90;;;1.40;;
77822;SDS011;67013;49.730;17.292;2023-06-05T10:07:05;3.10;;;1.20;;
77822;SDS011;67013;49.730;17.292;2023-06-05T10:09:38;4.40;;;1.30;;
77822;SDS011;67013;49.730;17.292;2023-06-05T10:12:08;5.70;;;1.70;;
77822;SDS011;67013;49.730;17.292;2023-06-05T10:14:40;2.80;;;1.10;;
77822;SDS011;67013;49.730;17.292;2023-06-05T10:17:11;2.80;;;1.10;;
77822;SDS011;67013;49.730;17.292;2023-06-05T10:19:42;2.90;;;1.20;;
77822;SDS011;67013;49.730;17.292;2023-06-05T10:22:12;3.20;;;1.20;;
77822;SDS011;67013;49.730;17.292;2023-06-05T10:24:44;3.10;;;1.30;;
77822;SDS011;67013;49.730;17.292;2023-06-05T10:33:28;3.00;;;1.20;;
77822;SDS011;67013;49.730;17.292;2023-06-05T10:39:08;2.60;;;1.40;;
77822;SDS011;67013;49.730;17.292;2023-06-05T10:41:39;2.80;;;1.30;;
77822;SDS011;67013;49.730;17.292;2023-06-05T10:44:10;3.00;;;1.40;;
77822;SDS011;67013;49.730;17.292;2023-06-05T10:46:39;2.90;;;1.30;;
77822;SDS011;67013;49.730;17.292;2023-06-05T10:49:10;3.80;;;1.40;;
77822;SDS011;67013;49.730;17.292;2023-06-05T10:51:43;2.50;;;1.20;;
77822;SDS011;67013;49.730;17.292;2023-06-05T10:54:13;2.60;;;1.10;;
77822;SDS011;67013;49.730;17.292;2023-06-05T10:57:05;3.50;;;1.50;;
77822;SDS011;67013;49.730;17.292;2023-06-05T10:59:37;4.40;;;1.40;;
77822;SDS011;67013;49.730;17.292;2023-06-05T11:02:25;4.30;;;1.70;;
77822;SDS011;67013;49.730;17.292;2023-06-05T11:05:04;4.10;;;1.50;;
77822;SDS011;67013;49.730;17.292;2023-06-05T11:07:37;3.80;;;1.70;;
77822;SDS011;67013;49.730;17.292;2023-06-05T11:10:11;3.60;;;1.90;;
77822;SDS011;67013;49.730;17.292;2023-06-05T11:12:54;4.70;;;2.00;;
77822;SDS011;67013;49.730;17.292;2023-06-05T11:15:39;3.80;;;1.80;;
77822;SDS011;67013;49.730;17.292;2023-06-05T11:18:29;4.20;;;2.00;;
77822;SDS011;67013;49.730;17.292;2023-06-05T11:21:00;3.70;;;1.60;;
77822;SDS011;67013;49.730;17.292;2023-06-05T11:23:30;3.70;;;1.70;;
77822;SDS011;67013;49.730;17.292;2023-06-05T11:29:13;3.60;;;1.80;;
77822;SDS011;67013;49.730;17.292;2023-06-05T11:31:45;3.90;;;1.50;;
77822;SDS011;67013;49.730;17.292;2023-06-05T11:34:14;4.40;;;1.80;;
77822;SDS011;67013;49.730;17.292;2023-06-05T11:36:44;3.20;;;1.50;;
77822;SDS011;67013;49.730;17.292;2023-06-05T11:39:13;4.20;;;2.20;;
77822;SDS011;67013;49.730;17.292;2023-06-05T11:41:47;5.30;;;2.20;;
77822;SDS011;67013;49.730;17.292;2023-06-05T11:44:30;4.40;;;2.00;;
77822;SDS011;67013;49.730;17.292;2023-06-05T11:47:02;3.30;;;1.80;;
77822;SDS011;67013;49.730;17.292;2023-06-05T11:49:32;4.40;;;1.80;;
77822;SDS011;67013;49.730;17.292;2023-06-05T11:52:02;3.90;;;1.90;;
77822;SDS011;67013;49.730;17.292;2023-06-05T11:54:33;3.70;;;1.70;;
77822;SDS011;67013;49.730;17.292;2023-06-05T11:57:12;3.70;;;1.80;;
77822;SDS011;67013;49.730;17.292;2023-06-05T11:59:44;3.50;;;1.80;;
77822;SDS011;67013;49.730;17.292;2023-06-05T12:02:20;3.80;;;2.40;;
77822;SDS011;67013;49.730;17.292;2023-06-05T12:04:50;3.80;;;2.10;;
77822;SDS011;67013;49.730;17.292;2023-06-05T12:07:28;3.40;;;1.70;;
77822;SDS011;67013;49.730;17.292;2023-06-05T12:12:27;3.30;;;1.90;;
77822;SDS011;67013;49.730;17.292;2023-06-05T12:14:56;4.20;;;1.80;;
77822;SDS011;67013;49.730;17.292;2023-06-05T12:17:40;4.80;;;2.20;;
77822;SDS011;67013;49.730;17.292;2023-06-05T12:20:16;3.40;;;1.60;;
77822;SDS011;67013;49.730;17.292;2023-06-05T12:22:45;3.50;;;1.80;;
77822;SDS011;67013;49.730;17.292;2023-06-05T12:25:15;4.60;;;1.70;;
77822;SDS011;67013;49.730;17.292;2023-06-05T12:27:46;3.80;;;1.80;;
77822;SDS011;67013;49.730;17.292;2023-06-05T12:30:16;3.40;;;1.60;;
77822;SDS011;67013;49.730;17.292;2023-06-05T12:32:46;3.70;;;1.80;;
77822;SDS011;67013;49.730;17.292;2023-06-05T12:35:21;4.10;;;1.80;;
77822;SDS011;67013;49.730;17.292;2023-06-05T12:37:51;4.30;;;1.90;;
77822;SDS011;67013;49.730;17.292;2023-06-05T12:40:27;4.60;;;1.90;;
77822;SDS011;67013;49.730;17.292;2023-06-05T12:42:57;3.30;;;1.70;;
77822;SDS011;67013;49.730;17.292;2023-06-05T12:45:26;3.50;;;1.70;;
77822;SDS011;67013;49.730;17.292;2023-06-05T12:47:57;4.20;;;2.30;;
77822;SDS011;67013;49.730;17.292;2023-06-05T12:50:26;4.40;;;1.80;;
77822;SDS011;67013;49.730;17.292;2023-06-05T12:52:56;3.80;;;1.80;;
77822;SDS011;67013;49.730;17.292;2023-06-05T12:55:26;3.10;;;1.60;;
77822;SDS011;67013;49.730;17.292;2023-06-05T12:57:56;4.30;;;1.80;;
77822;SDS011;67013;49.730;17.292;2023-06-05T13:00:26;3.40;;;1.70;;
77822;SDS011;67013;49.730;17.292;2023-06-05T13:02:55;3.90;;;1.80;;
77822;SDS011;67013;49.730;17.292;2023-06-05T13:05:24;3.80;;;1.90;;
77822;SDS011;67013;49.730;17.292;2023-06-05T13:07:54;4.00;;;1.80;;
77822;SDS011;67013;49.730;17.292;2023-06-05T13:10:23;3.50;;;1.90;;
77822;SDS011;67013;49.730;17.292;2023-06-05T13:12:53;3.80;;;2.00;;
77822;SDS011;67013;49.730;17.292;2023-06-05T13:15:22;3.50;;;1.80;;
77822;SDS011;67013;49.730;17.292;2023-06-05T13:17:52;3.80;;;1.90;;
77822;SDS011;67013;49.730;17.292;2023-06-05T13:20:21;3.50;;;1.80;;
77822;SDS011;67013;49.730;17.292;2023-06-05T13:22:51;4.00;;;2.10;;
77822;SDS011;67013;49.730;17.292;2023-06-05T13:25:21;3.70;;;1.90;;
77822;SDS011;67013;49.730;17.292;2023-06-05T13:27:51;4.30;;;1.90;;
77822;SDS011;67013;49.730;17.292;2023-06-05T13:30:20;3.70;;;2.00;;
77822;SDS011;67013;49.730;17.292;2023-06-05T13:32:50;3.10;;;1.70;;
77822;SDS011;67013;49.730;17.292;2023-06-05T13:35:21;3.50;;;1.90;;
77822;SDS011;67013;49.730;17.292;2023-06-05T13:37:50;3.60;;;2.00;;
77822;SDS011;67013;49.730;17.292;2023-06-05T13:40:20;4.00;;;1.90;;
77822;SDS011;67013;49.730;17.292;2023-06-05T13:42:53;4.00;;;2.00;;
77822;SDS011;67013;49.730;17.292;2023-06-05T13:45:22;4.00;;;2.30;;
77822;SDS011;67013;49.730;17.292;2023-06-05T13:47:52;3.30;;;1.90;;
77822;SDS011;67013;49.730;17.292;2023-06-05T13:50:21;4.40;;;2.20;;
77822;SDS011;67013;49.730;17.292;2023-06-05T13:52:51;3.90;;;1.90;;
77822;SDS011;67013;49.730;17.292;2023-06-05T13:55:20;3.40;;;1.90;;
77822;SDS011;67013;49.730;17.292;2023-06-05T13:57:50;4.10;;;2.30;;
77822;SDS011;67013;49.730;17.292;2023-06-05T14:00:20;4.00;;;2.10;;
77822;SDS011;67013;49.730;17.292;2023-06-05T14:02:50;4.00;;;2.20;;
77822;SDS011;67013;49.730;17.292;2023-06-05T14:05:19;3.70;;;2.10;;
77822;SDS011;67013;49.730;17.292;2023-06-05T14:07:49;3.20;;;2.00;;
77822;SDS011;67013;49.730;17.292;2023-06-05T14:10:20;4.10;;;2.10;;
77822;SDS011;67013;49.730;17.292;2023-06-05T14:12:51;3.90;;;2.10;;
77822;SDS011;67013;49.730;17.292;2023-06-05T14:15:21;4.40;;;2.10;;
77822;SDS011;67013;49.730;17.292;2023-06-05T14:17:51;3.20;;;2.10;;
77822;SDS011;67013;49.730;17.292;2023-06-05T14:20:21;4.10;;;2.30;;
77822;SDS011;67013;49.730;17.292;2023-06-05T14:22:50;4.00;;;2.10;;
77822;SDS011;67013;49.730;17.292;2023-06-05T14:25:20;4.60;;;2.20;;
77822;SDS011;67013;49.730;17.292;2023-06-05T14:27:53;4.40;;;2.20;;
77822;SDS011;67013;49.730;17.292;2023-06-05T14:30:23;3.70;;;2.10;;
77822;SDS011;67013;49.730;17.292;2023-06-05T14:32:54;3.90;;;2.00;;
77822;SDS011;67013;49.730;17.292;2023-06-05T14:35:23;3.40;;;1.90;;
77822;SDS011;67013;49.730;17.292;2023-06-05T14:37:53;3.90;;;1.90;;
77822;SDS011;67013;49.730;17.292;2023-06-05T14:40:23;4.10;;;2.20;;
77822;SDS011;67013;49.730;17.292;2023-06-05T14:42:52;3.80;;;2.10;;
77822;SDS011;67013;49.730;17.292;2023-06-05T14:45:22;3.70;;;2.10;;
77822;SDS011;67013;49.730;17.292;2023-06-05T14:47:52;3.90;;;2.30;;
77822;SDS011;67013;49.730;17.292;2023-06-05T14:50:21;4.00;;;2.30;;
77822;SDS011;67013;49.730;17.292;2023-06-05T14:52:51;4.20;;;2.30;;
77822;SDS011;67013;49.730;17.292;2023-06-05T14:55:20;4.00;;;2.40;;
77822;SDS011;67013;49.730;17.292;2023-06-05T14:57:50;3.60;;;2.00;;
77822;SDS011;67013;49.730;17.292;2023-06-05T15:00:20;4.20;;;2.20;;
77822;SDS011;67013;49.730;17.292;2023-06-05T15:02:49;4.60;;;2.10;;
77822;SDS011;67013;49.730;17.292;2023-06-05T15:05:19;5.10;;;2.00;;
77822;SDS011;67013;49.730;17.292;2023-06-05T15:07:48;3.40;;;2.00;;
77822;SDS011;67013;49.730;17.292;2023-06-05T15:10:18;3.40;;;2.00;;
77822;SDS011;67013;49.730;17.292;2023-06-05T15:12:48;3.40;;;2.10;;
77822;SDS011;67013;49.730;17.292;2023-06-05T15:15:22;3.50;;;2.00;;
77822;SDS011;67013;49.730;17.292;2023-06-05T15:17:52;3.90;;;2.10;;
77822;SDS011;67013;49.730;17.292;2023-06-05T15:20:23;3.80;;;2.00;;
77822;SDS011;67013;49.730;17.292;2023-06-05T15:22:53;4.10;;;2.40;;
77822;SDS011;67013;49.730;17.292;2023-06-05T15:25:23;3.70;;;2.10;;
77822;SDS011;67013;49.730;17.292;2023-06-05T15:27:53;3.80;;;2.00;;
77822;SDS011;67013;49.730;17.292;2023-06-05T15:30:23;3.40;;;2.10;;
77822;SDS011;67013;49.730;17.292;2023-06-05T15:32:52;4.10;;;2.30;;